createdAt,value
2019-01-24T00:02:07.965Z,17.77
2019-01-24T00:04:39.607Z,15.27
2019-01-24T00:07:08.839Z,18.70
2019-01-24T00:09:39.095Z,19.43
2019-01-24T00:12:12.095Z,19.13
2019-01-24T00:14:42.494Z,20.03
2019-01-24T00:17:11.683Z,17.27
2019-01-24T00:19:45.930Z,20.17
2019-01-24T00:22:15.066Z,16.97
2019-01-24T00:24:44.233Z,18.70
2019-01-24T00:27:18.631Z,16.07
2019-01-24T00:29:57.165Z,19.03
2019-01-24T00:32:26.295Z,20.27
2019-01-24T00:34:57.546Z,18.70
2019-01-24T00:37:26.556Z,19.87
2019-01-24T00:39:55.759Z,17.93
2019-01-24T00:42:28.503Z,18.60
2019-01-24T00:44:57.625Z,20.57
2019-01-24T00:47:28.250Z,16.13
2019-01-24T00:49:59.089Z,16.97
2019-01-24T00:52:28.363Z,16.77
2019-01-24T00:54:57.577Z,20.40
2019-01-24T00:57:26.914Z,18.77
2019-01-24T00:59:57.489Z,15.57
2019-01-24T01:02:28.418Z,17.30
2019-01-24T01:04:58.074Z,19.50
2019-01-24T01:07:27.192Z,16.57
2019-01-24T01:09:56.388Z,17.27
2019-01-24T01:12:25.537Z,19.70
2019-01-24T01:14:57.651Z,20.00
2019-01-24T01:17:32.794Z,18.20
2019-01-24T01:20:07.373Z,14.27
2019-01-24T01:22:37.694Z,19.63
2019-01-24T01:25:09.822Z,19.27
2019-01-24T01:27:41.074Z,21.13
2019-01-24T01:30:22.704Z,20.97
2019-01-24T01:32:56.190Z,19.07
2019-01-24T01:35:31.874Z,18.23
2019-01-24T01:38:23.408Z,19.70
2019-01-24T01:40:52.676Z,16.40
2019-01-24T01:43:23.667Z,17.00
2019-01-24T01:45:54.356Z,17.17
2019-01-24T01:48:25.030Z,19.87
2019-01-24T01:50:57.516Z,18.20
2019-01-24T01:53:28.603Z,18.87
2019-01-24T01:55:59.683Z,17.83
2019-01-24T01:58:28.842Z,18.30
2019-01-24T02:00:58.158Z,18.13
2019-01-24T02:03:33.468Z,17.47
2019-01-24T02:06:02.597Z,18.03
2019-01-24T02:08:32.090Z,16.93
2019-01-24T02:11:03.708Z,21.17
2019-01-24T02:13:35.107Z,16.43
2019-01-24T02:16:08.511Z,19.70
2019-01-24T02:18:42.958Z,20.47
2019-01-24T02:21:14.211Z,19.50
2019-01-24T02:23:41.863Z,22.30
2019-01-24T02:26:14.107Z,21.73
2019-01-24T02:28:43.310Z,20.23
2019-01-24T02:31:13.637Z,22.50
2019-01-24T02:33:46.517Z,20.33
2019-01-24T02:36:19.708Z,19.17
2019-01-24T02:38:48.867Z,20.03
2019-01-24T02:41:20.871Z,18.83
2019-01-24T02:43:49.980Z,21.47
2019-01-24T02:46:25.050Z,20.10
2019-01-24T02:48:54.874Z,20.63
2019-01-24T02:51:23.973Z,21.87
2019-01-24T02:53:57.297Z,22.17
2019-01-24T02:56:29.582Z,20.57
2019-01-24T02:59:04.092Z,22.37
2019-01-24T03:01:33.864Z,19.57
2019-01-24T03:04:03.054Z,18.37
2019-01-24T03:06:32.210Z,20.70
2019-01-24T03:09:05.526Z,16.90
2019-01-24T03:11:36.275Z,19.60
2019-01-24T03:14:06.588Z,20.60
2019-01-24T03:16:36.817Z,16.63
2019-01-24T03:19:07.754Z,20.97
2019-01-24T03:21:37.319Z,18.87
2019-01-24T03:24:08.862Z,18.93
2019-01-24T03:26:39.921Z,21.13
2019-01-24T03:29:12.143Z,19.77
2019-01-24T03:31:43.787Z,22.93
2019-01-24T03:34:12.875Z,15.73
2019-01-24T03:36:42.013Z,20.23
2019-01-24T03:39:12.431Z,19.30
2019-01-24T03:41:45.226Z,17.77
2019-01-24T03:44:15.959Z,17.50
2019-01-24T03:46:45.108Z,18.97
2019-01-24T03:49:14.434Z,18.03
2019-01-24T03:51:44.704Z,19.53
2019-01-24T03:54:16.360Z,20.63
2019-01-24T03:56:49.229Z,20.50
2019-01-24T03:59:24.494Z,21.70
2019-01-24T04:01:54.946Z,18.30
2019-01-24T04:04:25.718Z,20.80
2019-01-24T04:06:54.853Z,20.00
2019-01-24T04:09:27.201Z,18.93
2019-01-24T04:11:58.829Z,22.10
2019-01-24T04:14:29.988Z,21.07
2019-01-24T04:17:01.220Z,17.03
2019-01-24T04:19:32.947Z,20.90
2019-01-24T04:22:03.489Z,23.70
2019-01-24T04:24:34.254Z,18.80
2019-01-24T04:27:05.407Z,19.40
2019-01-24T04:29:34.553Z,18.50
2019-01-24T04:32:05.174Z,19.47
2019-01-24T04:34:36.001Z,19.77
2019-01-24T04:37:07.887Z,19.30
2019-01-24T04:39:41.755Z,18.60
2019-01-24T04:42:17.527Z,20.23
2019-01-24T04:44:46.655Z,20.87
2019-01-24T04:47:16.401Z,19.50
2019-01-24T04:49:51.179Z,20.70
2019-01-24T04:52:22.068Z,22.93
2019-01-24T04:54:51.501Z,20.07
2019-01-24T04:57:21.024Z,19.70
2019-01-24T04:59:51.840Z,21.17
2019-01-24T05:02:24.196Z,19.93
2019-01-24T05:04:57.445Z,21.30
2019-01-24T05:07:28.081Z,18.37
2019-01-24T05:09:57.238Z,19.07
2019-01-24T05:12:31.040Z,19.50
2019-01-24T05:15:00.382Z,18.30
2019-01-24T05:17:29.522Z,18.63
2019-01-24T05:20:05.705Z,21.07
2019-01-24T05:22:34.895Z,23.27
2019-01-24T05:25:04.615Z,18.87
2019-01-24T05:27:35.503Z,21.10
2019-01-24T05:30:07.070Z,23.63
2019-01-24T05:32:39.482Z,20.70
2019-01-24T05:35:11.958Z,19.27
2019-01-24T05:37:41.344Z,18.40
2019-01-24T05:40:11.237Z,20.30
2019-01-24T05:42:41.686Z,19.80
2019-01-24T05:45:12.443Z,20.73
2019-01-24T05:47:45.118Z,22.73
2019-01-24T05:50:14.619Z,22.80
2019-01-24T05:52:44.520Z,22.33
2019-01-24T05:55:15.336Z,18.20
2019-01-24T05:57:44.580Z,18.10
2019-01-24T06:00:19.972Z,19.23
2019-01-24T06:02:51.999Z,18.73
2019-01-24T06:05:23.155Z,19.07
2019-01-24T06:07:54.970Z,19.33
2019-01-24T06:10:24.187Z,19.73
2019-01-24T06:12:57.328Z,18.93
2019-01-24T06:15:25.072Z,18.00
2019-01-24T06:17:55.362Z,21.27
2019-01-24T06:20:26.959Z,17.10
2019-01-24T06:22:56.071Z,18.40
2019-01-24T06:25:27.227Z,18.57
2019-01-24T06:27:56.410Z,18.07
2019-01-24T06:30:26.981Z,14.83
2019-01-24T06:33:02.069Z,19.40
2019-01-24T06:35:33.898Z,18.67
2019-01-24T06:38:05.097Z,23.50
2019-01-24T06:40:36.805Z,18.93
2019-01-24T06:43:09.544Z,21.20
2019-01-24T06:45:38.652Z,20.87
2019-01-24T06:48:10.018Z,21.40
2019-01-24T06:50:40.555Z,16.90
2019-01-24T06:53:24.573Z,17.27
2019-01-24T06:55:48.123Z,21.73
2019-01-24T06:58:18.797Z,19.07
2019-01-24T07:00:49.421Z,22.30
2019-01-24T07:03:23.103Z,17.47
2019-01-24T07:05:55.574Z,19.33
2019-01-24T07:08:30.239Z,21.00
2019-01-24T07:10:59.409Z,20.33
2019-01-24T07:13:29.621Z,22.30
2019-01-24T07:16:07.502Z,18.87
2019-01-24T07:18:36.661Z,20.50
2019-01-24T07:21:06.059Z,21.83
2019-01-24T07:23:44.284Z,21.30
2019-01-24T07:26:19.657Z,19.30
2019-01-24T07:28:49.081Z,19.17
2019-01-24T07:31:25.707Z,22.57
2019-01-24T07:33:54.905Z,18.20
2019-01-24T07:36:24.513Z,21.70
2019-01-24T07:38:54.208Z,21.03
2019-01-24T07:41:26.616Z,19.90
2019-01-24T07:43:56.470Z,23.50
2019-01-24T07:46:29.267Z,20.87
2019-01-24T07:48:59.694Z,21.17
2019-01-24T07:51:28.895Z,19.33
2019-01-24T07:54:06.505Z,20.20
2019-01-24T07:56:38.560Z,20.33
2019-01-24T07:59:07.721Z,22.33
2019-01-24T08:01:39.612Z,22.20
2019-01-24T08:04:14.769Z,23.23
2019-01-24T08:06:44.084Z,21.60
2019-01-24T08:09:14.697Z,17.33
2019-01-24T08:11:45.279Z,20.50
2019-01-24T08:14:16.326Z,20.40
2019-01-24T08:16:45.512Z,17.67
2019-01-24T08:19:20.529Z,16.33
2019-01-24T08:21:49.604Z,18.20
2019-01-24T08:24:21.261Z,20.23
2019-01-24T08:26:54.386Z,19.33
2019-01-24T08:29:24.300Z,19.10
2019-01-24T08:31:53.691Z,19.47
2019-01-24T08:34:22.952Z,19.50
2019-01-24T08:36:53.746Z,19.40
2019-01-24T08:39:22.900Z,20.97
2019-01-24T08:41:54.685Z,18.17
2019-01-24T08:44:32.096Z,17.83
2019-01-24T08:47:01.762Z,19.03
2019-01-24T08:49:31.187Z,20.83
2019-01-24T08:52:03.958Z,18.80
2019-01-24T08:54:34.278Z,19.77
2019-01-24T08:57:10.959Z,20.27
2019-01-24T08:59:40.192Z,21.80
2019-01-24T09:02:10.485Z,19.20
2019-01-24T09:04:40.703Z,19.63
2019-01-24T09:07:14.496Z,19.80
2019-01-24T09:09:43.763Z,23.13
2019-01-24T09:12:13.741Z,19.40
2019-01-24T09:14:47.437Z,21.37
2019-01-24T09:17:16.565Z,19.77
2019-01-24T09:19:46.240Z,20.13
2019-01-24T09:22:19.666Z,19.80
2019-01-24T09:24:50.423Z,18.47
2019-01-24T09:27:26.365Z,20.23
2019-01-24T09:30:02.283Z,18.73
2019-01-24T09:32:31.380Z,19.03
2019-01-24T09:35:01.276Z,17.73
2019-01-24T09:37:35.377Z,23.43
2019-01-24T09:40:08.233Z,20.67
2019-01-24T09:42:42.470Z,20.90
2019-01-24T09:45:19.315Z,21.07
2019-01-24T09:47:48.710Z,19.87
2019-01-24T09:50:21.742Z,22.10
2019-01-24T09:52:51.970Z,20.13
2019-01-24T09:55:24.009Z,20.73
2019-01-24T09:57:55.619Z,21.23
2019-01-24T10:00:29.255Z,21.13
2019-01-24T10:03:00.687Z,19.47
2019-01-24T10:05:30.106Z,21.27
2019-01-24T10:08:00.741Z,19.30
2019-01-24T10:10:32.223Z,20.83
2019-01-24T10:13:13.938Z,18.87
2019-01-24T10:15:43.645Z,21.10
2019-01-24T10:18:21.435Z,21.57
2019-01-24T10:20:54.369Z,26.77
2019-01-24T10:23:24.925Z,23.30
2019-01-24T10:26:00.309Z,20.10
2019-01-24T10:28:29.558Z,19.97
2019-01-24T10:30:58.926Z,18.50
2019-01-24T10:33:31.220Z,18.90
2019-01-24T10:36:15.748Z,21.07
2019-01-24T10:38:45.117Z,18.33
2019-01-24T10:41:15.724Z,20.43
2019-01-24T10:43:47.980Z,19.53
2019-01-24T10:46:18.750Z,21.30
2019-01-24T10:48:53.012Z,20.73
2019-01-24T10:51:23.717Z,20.80
2019-01-24T10:53:53.082Z,21.60
2019-01-24T10:56:22.398Z,21.53
2019-01-24T10:58:55.140Z,21.17
2019-01-24T11:01:24.615Z,19.80
2019-01-24T11:03:57.921Z,23.97
2019-01-24T11:06:31.651Z,20.67
2019-01-24T11:09:02.442Z,19.67
2019-01-24T11:11:31.775Z,17.97
2019-01-24T11:14:00.999Z,19.40
2019-01-24T11:16:33.489Z,20.83
2019-01-24T11:19:02.796Z,22.33
2019-01-24T11:21:32.044Z,23.50
2019-01-24T11:24:01.641Z,22.73
2019-01-24T11:26:34.012Z,22.90
2019-01-24T11:29:04.053Z,21.27
2019-01-24T11:31:33.328Z,23.97
2019-01-24T11:34:05.765Z,19.37
2019-01-24T11:36:34.983Z,22.60
2019-01-24T11:39:07.370Z,24.50
2019-01-24T11:41:36.442Z,23.40
2019-01-24T11:44:05.706Z,26.80
2019-01-24T11:46:37.462Z,23.57
2019-01-24T11:49:06.631Z,21.13
2019-01-24T11:51:41.393Z,20.00
2019-01-24T11:54:18.469Z,22.73
2019-01-24T11:56:51.348Z,19.00
2019-01-24T11:59:20.040Z,21.05
2019-01-24T12:01:52.305Z,21.60
2019-01-24T12:04:24.924Z,22.00
2019-01-24T12:06:55.370Z,20.60
2019-01-24T12:09:27.806Z,22.67
2019-01-24T12:11:59.709Z,20.13
2019-01-24T12:14:30.942Z,20.03
2019-01-24T12:17:03.367Z,20.67
2019-01-24T12:19:33.570Z,20.27
2019-01-24T12:22:02.985Z,19.50
2019-01-24T12:24:34.712Z,20.90
2019-01-24T12:27:13.421Z,21.10
2019-01-24T12:29:43.710Z,20.73
2019-01-24T12:32:16.748Z,21.10
2019-01-24T12:34:46.083Z,18.47
2019-01-24T12:37:18.575Z,18.20
2019-01-24T12:39:55.702Z,20.20
2019-01-24T12:42:36.490Z,18.43
2019-01-24T12:45:08.047Z,18.90
2019-01-24T12:47:51.328Z,16.97
2019-01-24T12:50:09.683Z,21.40
2019-01-24T12:52:41.213Z,16.13
2019-01-24T12:55:12.015Z,22.80
2019-01-24T12:57:44.223Z,18.40
2019-01-24T13:00:18.514Z,19.17
2019-01-24T13:02:48.765Z,17.43
2019-01-24T13:05:19.940Z,18.30
2019-01-24T13:07:53.432Z,19.83
2019-01-24T13:10:26.448Z,20.50
2019-01-24T13:12:58.843Z,17.47
2019-01-24T13:15:29.888Z,19.70
2019-01-24T13:17:59.078Z,18.87
2019-01-24T13:20:28.415Z,17.87
2019-01-24T13:22:58.726Z,16.90
2019-01-24T13:25:33.331Z,17.70
2019-01-24T13:28:07.528Z,22.60
2019-01-24T13:30:34.696Z,18.43
2019-01-24T13:33:06.122Z,22.43
2019-01-24T13:35:35.914Z,19.87
2019-01-24T13:38:07.781Z,20.80
2019-01-24T13:40:37.434Z,19.80
2019-01-24T13:43:11.085Z,23.00
2019-01-24T13:45:46.539Z,18.27
2019-01-24T13:48:16.037Z,19.07
2019-01-24T13:50:45.826Z,21.70
2019-01-24T13:53:17.276Z,18.53
2019-01-24T13:55:49.453Z,19.27
2019-01-24T13:58:21.855Z,20.23
2019-01-24T14:00:52.389Z,21.03
2019-01-24T14:03:54.574Z,17.23
2019-01-24T14:06:37.958Z,17.90
2019-01-24T14:11:50.349Z,18.83
2019-01-24T14:14:20.670Z,21.53
2019-01-24T14:16:51.306Z,23.43
2019-01-24T14:19:23.573Z,19.50
2019-01-24T14:21:55.095Z,19.23
2019-01-24T14:24:28.109Z,20.70
2019-01-24T14:27:01.440Z,20.00
2019-01-24T14:29:30.840Z,21.30
2019-01-24T14:32:06.303Z,19.10
2019-01-24T14:34:36.961Z,19.40
2019-01-24T14:37:08.822Z,20.43
2019-01-24T14:39:38.849Z,19.90
2019-01-24T14:42:16.329Z,20.90
2019-01-24T14:44:45.669Z,20.20
2019-01-24T14:47:16.341Z,18.83
2019-01-24T14:49:48.812Z,22.13
2019-01-24T14:52:21.410Z,21.40
2019-01-24T14:54:51.479Z,21.07
2019-01-24T14:57:22.974Z,20.53
2019-01-24T14:59:53.982Z,25.50
2019-01-24T15:02:23.950Z,25.17
2019-01-24T15:04:53.156Z,28.17
2019-01-24T15:07:24.858Z,24.30
2019-01-24T15:09:55.398Z,25.63
2019-01-24T15:12:26.323Z,27.10
2019-01-24T15:14:55.467Z,23.60
2019-01-24T15:17:24.846Z,23.43
2019-01-24T15:19:56.058Z,21.90
2019-01-24T15:22:25.560Z,22.13
2019-01-24T15:24:54.842Z,21.27
2019-01-24T15:27:24.101Z,20.07
2019-01-24T15:29:56.197Z,26.50
2019-01-24T15:32:25.498Z,23.00
2019-01-24T15:34:57.595Z,22.37
2019-01-24T15:37:26.812Z,22.77
2019-01-24T15:39:56.009Z,22.20
2019-01-24T15:42:26.446Z,28.53
2019-01-24T15:45:00.844Z,25.00
2019-01-24T15:47:40.267Z,23.97
2019-01-24T15:50:00.942Z,25.10
2019-01-24T15:52:34.108Z,26.40
2019-01-24T15:55:03.315Z,22.23
2019-01-24T15:57:36.508Z,26.90
2019-01-24T16:00:11.196Z,26.33
2019-01-24T16:02:41.743Z,24.00
2019-01-24T16:05:12.971Z,22.40
2019-01-24T16:08:01.333Z,23.23
2019-01-24T16:10:27.715Z,25.00
2019-01-24T16:12:56.979Z,23.67
2019-01-24T16:15:29.044Z,23.73
2019-01-24T16:17:58.316Z,27.73
2019-01-24T16:20:36.718Z,27.03
2019-01-24T16:23:09.003Z,25.20
2019-01-24T16:25:41.692Z,25.33
2019-01-24T16:28:12.855Z,26.20
2019-01-24T16:30:42.001Z,22.40
2019-01-24T16:33:12.526Z,30.77
2019-01-24T16:35:44.926Z,24.67
2019-01-24T16:38:25.300Z,26.00
2019-01-24T16:40:54.668Z,24.37
2019-01-24T16:43:27.846Z,29.17
2019-01-24T16:45:57.107Z,23.30
2019-01-24T16:48:26.404Z,22.93
2019-01-24T16:50:55.587Z,24.67
2019-01-24T16:53:24.702Z,22.40
2019-01-24T16:55:58.017Z,24.70
2019-01-24T16:58:31.005Z,23.47
2019-01-24T17:01:16.647Z,24.50
2019-01-24T17:03:45.802Z,23.20
2019-01-24T17:06:15.318Z,25.13
2019-01-24T17:08:47.275Z,25.20
2019-01-24T17:11:17.726Z,21.83
2019-01-24T17:13:53.117Z,24.00
2019-01-24T17:16:23.273Z,22.37
2019-01-24T17:18:53.755Z,22.07
2019-01-24T17:21:22.953Z,21.00
2019-01-24T17:23:56.820Z,20.83
2019-01-24T17:26:28.397Z,21.13
2019-01-24T17:28:58.148Z,19.50
2019-01-24T17:31:30.704Z,21.13
2019-01-24T17:34:00.949Z,21.53
2019-01-24T17:36:36.544Z,18.83
2019-01-24T17:39:10.333Z,23.20
2019-01-24T17:41:39.467Z,23.13
2019-01-24T17:44:08.838Z,28.07
2019-01-24T17:46:39.296Z,22.07
2019-01-24T17:49:10.978Z,26.27
2019-01-24T17:51:41.654Z,21.13
2019-01-24T17:54:14.569Z,21.17
2019-01-24T17:56:46.849Z,21.07
2019-01-24T17:59:17.183Z,18.00
2019-01-24T18:01:46.529Z,25.40
2019-01-24T18:04:22.006Z,23.60
2019-01-24T18:07:00.267Z,20.70
2019-01-24T18:09:29.446Z,21.87
2019-01-24T18:11:59.118Z,18.97
2019-01-24T18:14:32.492Z,22.53
2019-01-24T18:17:01.641Z,21.30
2019-01-24T18:19:31.352Z,21.83
2019-01-24T18:22:02.980Z,22.03
2019-01-24T18:24:32.291Z,21.60
2019-01-24T18:27:04.627Z,19.40
2019-01-24T18:29:33.819Z,22.10
2019-01-24T18:32:03.004Z,21.57
2019-01-24T18:34:35.134Z,18.40
2019-01-24T18:37:05.480Z,20.40
2019-01-24T18:39:38.269Z,18.47
2019-01-24T18:42:07.459Z,20.10
2019-01-24T18:44:36.732Z,18.87
2019-01-24T18:47:08.889Z,17.20
2019-01-24T18:49:44.379Z,20.30
2019-01-24T18:52:13.392Z,18.30
2019-01-24T18:54:42.876Z,17.90
2019-01-24T18:57:18.682Z,16.60
2019-01-24T18:59:47.971Z,18.20
2019-01-24T19:02:22.115Z,15.20
2019-01-24T19:04:53.114Z,15.23
2019-01-24T19:07:22.281Z,18.33
2019-01-24T19:09:51.437Z,15.97
2019-01-24T19:12:24.848Z,15.10
2019-01-24T19:15:01.285Z,17.93
2019-01-24T19:17:30.439Z,15.17
2019-01-24T19:20:03.728Z,16.97
2019-01-24T19:22:37.270Z,18.80
2019-01-24T19:25:13.292Z,14.27
2019-01-24T19:27:42.595Z,17.07
2019-01-24T19:30:18.035Z,15.00
2019-01-24T19:32:51.637Z,15.97
2019-01-24T19:35:25.256Z,15.13
2019-01-24T19:37:52.883Z,18.30
2019-01-24T19:40:25.748Z,18.60
2019-01-24T19:42:59.073Z,18.17
2019-01-24T19:45:33.564Z,16.80
2019-01-24T19:48:08.372Z,16.27
2019-01-24T19:50:40.386Z,18.20
2019-01-24T19:53:13.065Z,18.30
2019-01-24T19:55:48.203Z,16.60
2019-01-24T19:58:18.418Z,18.17
2019-01-24T20:00:49.505Z,18.37
2019-01-24T20:03:19.761Z,17.97
2019-01-24T20:05:50.550Z,18.97
2019-01-24T20:08:20.110Z,19.37
2019-01-24T20:10:52.370Z,14.70
2019-01-24T20:13:21.526Z,17.80
2019-01-24T20:15:50.683Z,15.67
2019-01-24T20:18:19.838Z,17.33
2019-01-24T20:20:51.088Z,15.90
2019-01-24T20:23:21.885Z,18.13
2019-01-24T20:25:51.123Z,16.27
2019-01-24T20:28:21.368Z,15.93
2019-01-24T20:30:50.795Z,17.10
2019-01-24T20:33:20.065Z,16.70
2019-01-24T20:35:52.518Z,16.33
2019-01-24T20:38:22.120Z,18.60
2019-01-24T20:40:51.331Z,18.23
2019-01-24T20:43:26.492Z,18.50
2019-01-24T20:45:55.650Z,15.70
2019-01-24T20:48:24.779Z,17.60
2019-01-24T20:51:01.671Z,19.50
2019-01-24T20:53:30.832Z,16.37
2019-01-24T20:56:03.969Z,18.60
2019-01-24T20:58:37.433Z,15.43
2019-01-24T21:01:09.984Z,16.10
2019-01-24T21:03:39.699Z,18.93
2019-01-24T21:06:10.742Z,17.80
2019-01-24T21:08:39.924Z,17.27
2019-01-24T21:11:09.298Z,18.60
2019-01-24T21:13:40.014Z,16.87
2019-01-24T21:16:09.107Z,19.77
2019-01-24T21:18:39.748Z,16.10
2019-01-24T21:21:08.971Z,16.67
2019-01-24T21:23:49.342Z,16.53
2019-01-24T21:26:21.446Z,18.43
2019-01-24T21:28:50.643Z,16.87
2019-01-24T21:31:19.837Z,18.77
2019-01-24T21:33:49.007Z,16.93
2019-01-24T21:36:24.246Z,15.40
2019-01-24T21:38:56.209Z,15.87
2019-01-24T21:41:25.478Z,16.40
2019-01-24T21:44:03.699Z,15.17
2019-01-24T21:46:32.849Z,17.10
2019-01-24T21:49:02.915Z,14.70
2019-01-24T21:51:33.405Z,13.47
2019-01-24T21:54:05.542Z,15.10
2019-01-24T21:56:35.988Z,14.93
2019-01-24T21:59:07.241Z,15.93
2019-01-24T22:01:37.691Z,12.60
2019-01-24T22:04:08.374Z,15.97
2019-01-24T22:06:37.725Z,14.77
2019-01-24T22:09:14.445Z,13.47
2019-01-24T22:11:43.577Z,14.63
2019-01-24T22:14:15.975Z,13.40
2019-01-24T22:16:46.820Z,12.30
2019-01-24T22:19:16.144Z,12.20
2019-01-24T22:21:47.209Z,14.50
2019-01-24T22:24:16.825Z,11.13
2019-01-24T22:26:46.208Z,13.20
2019-01-24T22:29:16.865Z,13.13
2019-01-24T22:31:46.039Z,13.43
2019-01-24T22:34:16.917Z,14.10
2019-01-24T22:36:51.124Z,12.50
2019-01-24T22:39:21.550Z,12.40
2019-01-24T22:41:55.252Z,14.50
2019-01-24T22:44:24.399Z,13.10
2019-01-24T22:46:56.892Z,11.63
2019-01-24T22:49:36.356Z,13.90
2019-01-24T22:52:11.384Z,13.40
2019-01-24T22:54:43.626Z,12.40
2019-01-24T22:57:12.981Z,11.27
2019-01-24T22:59:42.451Z,12.00
2019-01-24T23:02:31.876Z,12.60
2019-01-24T23:05:01.024Z,11.90
2019-01-24T23:07:30.162Z,12.87
2019-01-24T23:10:04.458Z,10.83
2019-01-24T23:12:33.787Z,12.30
2019-01-24T23:15:09.468Z,12.57
2019-01-24T23:17:41.171Z,10.80
2019-01-24T23:20:11.849Z,11.33
2019-01-24T23:22:44.211Z,10.80
2019-01-24T23:25:13.370Z,11.40
2019-01-24T23:27:42.672Z,14.20
2019-01-24T23:30:12.189Z,12.97
2019-01-24T23:32:45.889Z,13.30
2019-01-24T23:35:17.675Z,13.20
2019-01-24T23:37:52.315Z,13.20
2019-01-24T23:40:23.239Z,14.00
2019-01-24T23:42:59.183Z,12.80
2019-01-24T23:45:28.600Z,11.93
2019-01-24T23:48:03.971Z,12.60
2019-01-24T23:50:33.159Z,13.80
2019-01-24T23:53:03.086Z,12.70
2019-01-24T23:55:33.414Z,14.53
2019-01-24T23:58:05.558Z,14.13
